createdAt,value
2022-09-24T00:01:17.310Z,10.23
2022-09-24T00:03:50.039Z,8.43
2022-09-24T00:06:19.060Z,7.65
2022-09-24T00:08:51.013Z,10.95
2022-09-24T00:11:19.719Z,9.00
2022-09-24T00:13:48.062Z,8.48
2022-09-24T00:16:16.005Z,11.60
2022-09-24T00:18:42.776Z,10.18
2022-09-24T00:21:12.606Z,10.10
2022-09-24T00:23:39.382Z,10.40
2022-09-24T00:26:24.818Z,8.95
2022-09-24T00:28:52.464Z,12.07
2022-09-24T00:31:19.049Z,8.73
2022-09-24T00:33:45.673Z,13.25
2022-09-24T00:36:14.673Z,14.85
2022-09-24T00:38:41.194Z,10.70
2022-09-24T00:41:07.682Z,8.73
2022-09-24T00:43:37.333Z,10.52
2022-09-24T00:46:26.533Z,10.60
2022-09-24T00:48:57.945Z,8.45
2022-09-24T00:51:26.799Z,8.40
2022-09-24T00:53:59.220Z,7.53
2022-09-24T00:56:26.636Z,10.52
2022-09-24T00:58:56.119Z,10.38
2022-09-24T01:01:24.542Z,8.57
2022-09-24T01:03:55.350Z,8.07
2022-09-24T01:06:22.120Z,9.55
2022-09-24T01:08:48.754Z,8.02
2022-09-24T01:11:26.919Z,9.32
2022-09-24T01:14:03.306Z,9.27
2022-09-24T01:16:57.479Z,8.63
2022-09-24T01:19:56.115Z,8.45
2022-09-24T01:22:40.677Z,8.15
2022-09-24T01:25:38.083Z,9.20
2022-09-24T01:28:42.621Z,8.57
2022-09-24T01:31:16.767Z,7.15
2022-09-24T01:33:46.219Z,6.97
2022-09-24T01:36:14.749Z,10.57
2022-09-24T01:38:44.251Z,8.85
2022-09-24T01:41:12.672Z,7.03
2022-09-24T01:43:39.755Z,10.60
2022-09-24T01:46:07.071Z,7.75
2022-09-24T01:48:37.197Z,9.27
2022-09-24T01:51:13.343Z,7.50
2022-09-24T01:53:50.036Z,9.82
2022-09-24T01:56:30.374Z,9.27
2022-09-24T01:59:22.710Z,7.22
2022-09-24T02:01:55.286Z,9.02
2022-09-24T02:04:24.085Z,8.15
2022-09-24T02:07:00.003Z,9.90
2022-09-24T02:09:31.281Z,9.13
2022-09-24T02:12:03.816Z,7.30
2022-09-24T02:14:36.278Z,7.60
2022-09-24T02:17:04.380Z,8.02
2022-09-24T02:19:35.067Z,8.38
2022-09-24T02:22:02.570Z,9.55
2022-09-24T02:24:36.933Z,9.73
2022-09-24T02:27:03.577Z,6.20
2022-09-24T02:29:30.141Z,7.55
2022-09-24T02:31:59.598Z,7.78
2022-09-24T02:34:34.184Z,8.63
2022-09-24T02:37:07.575Z,9.55
2022-09-24T02:39:34.130Z,8.82
2022-09-24T02:42:02.017Z,8.25
2022-09-24T02:44:30.974Z,7.57
2022-09-24T02:46:57.539Z,8.75
2022-09-24T02:49:24.325Z,8.38
2022-09-24T02:51:50.831Z,7.03
2022-09-24T02:54:17.493Z,9.63
2022-09-24T02:56:44.228Z,8.95
2022-09-24T02:59:12.069Z,10.10
2022-09-24T03:01:38.772Z,7.97
2022-09-24T03:04:05.544Z,8.00
2022-09-24T03:06:32.509Z,9.40
2022-09-24T03:09:03.153Z,11.30
2022-09-24T03:11:31.333Z,9.32
2022-09-24T03:13:57.926Z,12.20
2022-09-24T03:16:24.781Z,11.02
2022-09-24T03:18:51.337Z,10.45
2022-09-24T03:21:20.025Z,8.75
2022-09-24T03:23:46.803Z,9.90
2022-09-24T03:26:14.138Z,10.43
2022-09-24T03:28:40.675Z,11.02
2022-09-24T03:31:08.711Z,12.93
2022-09-24T03:33:46.860Z,8.18
2022-09-24T03:36:22.547Z,8.82
2022-09-24T03:38:51.479Z,10.27
2022-09-24T03:41:18.370Z,7.30
2022-09-24T03:43:44.956Z,8.07
2022-09-24T03:46:12.533Z,8.25
2022-09-24T03:48:41.078Z,8.65
2022-09-24T03:51:10.801Z,10.43
2022-09-24T03:53:37.631Z,7.97
2022-09-24T03:56:06.171Z,8.57
2022-09-24T03:58:36.023Z,8.32
2022-09-24T04:01:02.782Z,9.65
2022-09-24T04:03:29.362Z,9.73
2022-09-24T04:05:56.067Z,10.18
2022-09-24T04:08:23.549Z,8.65
2022-09-24T04:10:51.273Z,7.80
2022-09-24T04:13:18.945Z,14.95
2022-09-24T04:15:45.542Z,7.18
2022-09-24T04:18:12.485Z,10.35
2022-09-24T04:20:39.667Z,9.45
2022-09-24T04:23:06.262Z,7.40
2022-09-24T04:25:33.331Z,7.75
2022-09-24T04:28:05.805Z,8.40
2022-09-24T04:30:34.214Z,9.20
2022-09-24T04:33:02.386Z,8.90
2022-09-24T04:35:31.619Z,11.77
2022-09-24T04:37:59.261Z,9.27
2022-09-24T04:40:26.855Z,11.32
2022-09-24T04:42:53.995Z,8.90
2022-09-24T04:45:21.592Z,9.82
2022-09-24T04:47:55.987Z,8.82
2022-09-24T04:50:23.368Z,11.53
2022-09-24T04:52:49.918Z,8.57
2022-09-24T04:55:16.524Z,7.97
2022-09-24T04:57:44.511Z,8.98
2022-09-24T05:00:15.248Z,7.60
2022-09-24T05:02:42.612Z,7.72
2022-09-24T05:05:11.228Z,11.02
2022-09-24T05:07:38.180Z,9.45
2022-09-24T05:10:06.419Z,8.85
2022-09-24T05:12:35.268Z,11.05
2022-09-24T05:15:02.103Z,9.95
2022-09-24T05:17:28.747Z,9.20
2022-09-24T05:19:57.658Z,8.73
2022-09-24T05:22:27.324Z,7.70
2022-09-24T05:24:54.337Z,9.98
2022-09-24T05:27:23.050Z,7.88
2022-09-24T05:29:50.295Z,10.13
2022-09-24T05:32:18.807Z,9.18
2022-09-24T05:34:46.222Z,10.82
2022-09-24T05:37:14.101Z,9.55
2022-09-24T05:39:40.933Z,8.43
2022-09-24T05:42:10.414Z,9.50
2022-09-24T05:44:37.975Z,9.18
2022-09-24T05:47:04.667Z,8.38
2022-09-24T05:49:31.927Z,10.35
2022-09-24T05:51:58.798Z,9.35
2022-09-24T05:54:25.458Z,8.90
2022-09-24T05:56:52.052Z,10.10
2022-09-24T05:59:18.646Z,9.40
2022-09-24T06:01:45.279Z,9.90
2022-09-24T06:04:12.620Z,12.30
2022-09-24T06:06:39.273Z,8.65
2022-09-24T06:09:08.712Z,7.70
2022-09-24T06:11:40.032Z,8.43
2022-09-24T06:14:08.910Z,7.57
2022-09-24T06:16:36.112Z,9.85
2022-09-24T06:19:02.854Z,8.73
2022-09-24T06:21:29.664Z,8.27
2022-09-24T06:23:56.307Z,8.52
2022-09-24T06:26:23.041Z,10.18
2022-09-24T06:28:49.577Z,8.13
2022-09-24T06:31:16.229Z,11.07
2022-09-24T06:33:42.998Z,7.85
2022-09-24T06:36:10.149Z,7.72
2022-09-24T06:38:39.268Z,7.47
2022-09-24T06:41:06.759Z,8.63
2022-09-24T06:43:34.017Z,9.05
2022-09-24T06:46:01.085Z,9.27
2022-09-24T06:48:28.526Z,8.80
2022-09-24T06:50:56.246Z,10.02
2022-09-24T06:53:23.067Z,11.43
2022-09-24T06:55:49.682Z,9.23
2022-09-24T06:58:22.197Z,10.18
2022-09-24T07:00:58.661Z,8.23
2022-09-24T07:03:27.124Z,10.80
2022-09-24T07:05:54.351Z,8.88
2022-09-24T07:08:21.964Z,8.05
2022-09-24T07:10:49.251Z,9.25
2022-09-24T07:13:16.956Z,7.97
2022-09-24T07:15:44.375Z,7.85
2022-09-24T07:18:11.512Z,7.15
2022-09-24T07:20:38.107Z,9.93
2022-09-24T07:23:06.179Z,8.63
2022-09-24T07:25:33.348Z,8.60
2022-09-24T07:28:08.734Z,8.25
2022-09-24T07:30:36.648Z,9.85
2022-09-24T07:33:04.250Z,8.57
2022-09-24T07:35:31.466Z,9.60
2022-09-24T07:38:04.535Z,9.07
2022-09-24T07:40:31.996Z,9.75
2022-09-24T07:42:59.918Z,8.40
2022-09-24T07:45:29.342Z,8.07
2022-09-24T07:48:00.106Z,8.43
2022-09-24T07:50:28.620Z,7.20
2022-09-24T07:52:55.273Z,7.10
2022-09-24T07:55:22.649Z,7.90
2022-09-24T07:57:51.706Z,8.85
2022-09-24T08:00:19.323Z,8.20
2022-09-24T08:02:47.515Z,11.93
2022-09-24T08:05:16.486Z,8.80
2022-09-24T08:07:43.562Z,7.63
2022-09-24T08:10:10.169Z,8.60
2022-09-24T08:12:36.746Z,7.25
2022-09-24T08:15:03.438Z,7.88
2022-09-24T08:17:30.887Z,10.00
2022-09-24T08:19:57.443Z,8.38
2022-09-24T08:22:24.863Z,8.18
2022-09-24T08:24:51.820Z,8.82
2022-09-24T08:27:20.321Z,12.90
2022-09-24T08:29:47.066Z,7.95
2022-09-24T08:32:13.612Z,7.45
2022-09-24T08:34:40.562Z,8.00
2022-09-24T08:37:08.010Z,6.55
2022-09-24T08:39:35.109Z,7.50
2022-09-24T08:42:06.154Z,6.57
2022-09-24T08:44:59.671Z,9.27
2022-09-24T08:47:45.615Z,6.93
2022-09-24T08:50:17.262Z,8.93
2022-09-24T08:52:43.766Z,9.23
2022-09-24T08:55:25.456Z,6.85
2022-09-24T08:58:16.517Z,10.27
2022-09-24T09:00:52.025Z,8.13
2022-09-24T09:03:44.709Z,9.90
2022-09-24T09:06:46.043Z,6.32
2022-09-24T09:09:22.570Z,7.50
2022-09-24T09:11:52.376Z,7.85
2022-09-24T09:14:41.936Z,9.40
2022-09-24T09:17:26.914Z,7.13
2022-09-24T09:19:59.115Z,10.30
2022-09-24T09:22:29.811Z,8.55
2022-09-24T09:25:04.542Z,6.90
2022-09-24T09:27:31.331Z,7.25
2022-09-24T09:30:02.994Z,9.18
2022-09-24T09:32:45.626Z,8.15
2022-09-24T09:35:19.358Z,7.70
2022-09-24T09:38:17.087Z,8.07
2022-09-24T09:40:48.086Z,6.55
2022-09-24T09:43:14.962Z,8.75
2022-09-24T09:46:03.263Z,6.32
2022-09-24T09:48:41.360Z,6.60
2022-09-24T09:51:22.909Z,6.97
2022-09-24T09:54:00.824Z,6.38
2022-09-24T09:56:36.111Z,7.00
2022-09-24T10:01:37.575Z,10.35
2022-09-24T10:04:05.169Z,8.18
2022-09-24T10:06:34.709Z,9.55
2022-09-24T10:09:16.914Z,8.70
2022-09-24T10:11:43.563Z,7.43
2022-09-24T10:14:15.828Z,7.90
2022-09-24T10:16:45.493Z,6.85
2022-09-24T10:19:24.585Z,8.65
2022-09-24T10:21:53.017Z,8.05
2022-09-24T10:24:23.226Z,7.60
2022-09-24T10:26:50.912Z,9.60
2022-09-24T10:29:37.914Z,7.78
2022-09-24T10:32:06.376Z,6.25
2022-09-24T10:34:33.126Z,7.35
2022-09-24T10:37:12.613Z,7.47
2022-09-24T10:39:39.202Z,8.88
2022-09-24T10:42:07.725Z,9.93
2022-09-24T10:44:37.003Z,10.13
2022-09-24T10:47:42.094Z,9.60
2022-09-24T10:50:25.168Z,6.65
2022-09-24T10:53:01.407Z,6.35
2022-09-24T10:55:48.604Z,10.50
2022-09-24T10:58:33.218Z,7.38
2022-09-24T11:01:39.345Z,6.68
2022-09-24T11:04:43.962Z,5.78
2022-09-24T11:07:38.155Z,6.43
2022-09-24T11:10:29.895Z,5.82
2022-09-24T11:13:21.491Z,4.72
2022-09-24T11:16:35.556Z,5.03
2022-09-24T11:19:13.862Z,6.15
2022-09-24T11:22:09.376Z,8.45
2022-09-24T11:24:47.631Z,9.27
2022-09-24T11:27:37.279Z,5.28
2022-09-24T11:30:18.071Z,6.82
2022-09-24T11:32:44.576Z,8.73
2022-09-24T11:35:28.211Z,6.68
2022-09-24T11:38:39.335Z,5.07
2022-09-24T11:41:40.629Z,6.43
2022-09-24T11:44:40.612Z,5.22
2022-09-24T11:47:13.315Z,4.40
2022-09-24T11:50:04.209Z,4.22
2022-09-24T11:52:36.684Z,4.10
2022-09-24T11:55:34.651Z,8.43
2022-09-24T11:58:24.461Z,4.25
2022-09-24T12:00:59.224Z,6.13
2022-09-24T12:03:39.416Z,4.00
2022-09-24T12:06:10.287Z,5.38
2022-09-24T12:08:42.238Z,5.45
2022-09-24T12:11:15.879Z,6.38
2022-09-24T12:13:46.999Z,3.95
2022-09-24T12:16:19.457Z,5.03
2022-09-24T12:19:06.463Z,6.55
2022-09-24T12:21:40.425Z,5.20
2022-09-24T12:24:42.610Z,4.60
2022-09-24T12:27:20.840Z,7.53
2022-09-24T12:30:11.858Z,6.80
2022-09-24T12:33:00.185Z,4.70
2022-09-24T12:35:50.928Z,5.15
2022-09-24T12:38:34.283Z,6.82
2022-09-24T12:41:15.704Z,3.60
2022-09-24T12:43:51.696Z,8.48
2022-09-24T12:46:22.661Z,4.25
2022-09-24T12:48:50.736Z,10.00
2022-09-24T12:51:22.229Z,4.55
2022-09-24T12:53:57.574Z,4.60
2022-09-24T12:56:26.990Z,6.75
2022-09-24T12:58:53.586Z,7.35
2022-09-24T13:01:23.213Z,4.20
2022-09-24T13:04:14.802Z,5.85
2022-09-24T13:06:46.389Z,4.78
2022-09-24T13:09:34.273Z,3.78
2022-09-24T13:12:17.943Z,5.50
2022-09-24T13:15:02.589Z,3.92
2022-09-24T13:17:32.174Z,2.83
2022-09-24T13:20:03.620Z,5.70
2022-09-24T13:22:33.529Z,6.43
2022-09-24T13:25:09.306Z,5.03
2022-09-24T13:27:42.253Z,3.92
2022-09-24T13:30:09.458Z,2.63
2022-09-24T13:32:46.512Z,3.60
2022-09-24T13:35:22.570Z,3.55
2022-09-24T13:38:06.694Z,4.75
2022-09-24T13:40:38.708Z,5.22
2022-09-24T13:43:16.271Z,4.03
2022-09-24T13:45:45.103Z,3.85
2022-09-24T13:48:38.643Z,4.20
2022-09-24T13:51:10.917Z,5.60
2022-09-24T13:53:50.211Z,4.30
2022-09-24T13:56:21.017Z,2.85
2022-09-24T13:58:51.024Z,3.40
2022-09-24T14:01:30.637Z,2.60
2022-09-24T14:04:05.224Z,5.60
2022-09-24T14:06:33.767Z,4.57
2022-09-24T14:09:01.021Z,3.03
2022-09-24T14:11:27.583Z,2.75
2022-09-24T14:13:56.290Z,4.07
2022-09-24T14:16:24.542Z,4.82
2022-09-24T14:19:04.970Z,5.00
2022-09-24T14:21:41.550Z,3.53
2022-09-24T14:24:13.486Z,2.60
2022-09-24T14:26:50.991Z,2.85
2022-09-24T14:29:29.005Z,3.90
2022-09-24T14:32:01.930Z,3.38
2022-09-24T14:34:38.859Z,4.03
2022-09-24T14:37:19.063Z,5.10
2022-09-24T14:39:48.085Z,4.28
2022-09-24T14:42:31.281Z,6.07
2022-09-24T14:44:58.920Z,4.53
2022-09-24T14:47:28.587Z,4.68
2022-09-24T14:49:55.845Z,4.45
2022-09-24T14:52:32.117Z,4.22
2022-09-24T14:55:19.518Z,3.30
2022-09-24T14:57:49.594Z,3.30
2022-09-24T15:00:25.792Z,3.35
2022-09-24T15:03:06.139Z,2.80
2022-09-24T15:05:32.930Z,5.60
2022-09-24T15:08:21.353Z,4.63
2022-09-24T15:11:06.310Z,3.78
2022-09-24T15:13:37.906Z,3.35
2022-09-24T15:16:27.836Z,2.67
2022-09-24T15:19:07.974Z,4.32
2022-09-24T15:21:34.827Z,5.18
2022-09-24T15:24:01.765Z,3.33
2022-09-24T15:26:30.926Z,5.35
2022-09-24T15:28:58.671Z,3.63
2022-09-24T15:31:25.786Z,3.60
2022-09-24T15:33:53.074Z,7.68
2022-09-24T15:36:21.067Z,4.55
2022-09-24T15:38:51.293Z,6.97
2022-09-24T15:41:19.541Z,5.75
2022-09-24T15:43:46.103Z,4.85
2022-09-24T15:46:12.672Z,6.00
2022-09-24T15:48:39.285Z,3.95
2022-09-24T15:51:11.753Z,4.32
2022-09-24T15:53:41.303Z,4.47
2022-09-24T15:56:07.967Z,6.85
2022-09-24T15:58:34.846Z,4.93
2022-09-24T16:01:01.502Z,6.68
2022-09-24T16:03:29.992Z,5.63
2022-09-24T16:05:59.263Z,5.72
2022-09-24T16:08:26.620Z,6.55
2022-09-24T16:10:53.330Z,5.60
2022-09-24T16:13:23.092Z,4.95
2022-09-24T16:15:49.662Z,4.40
2022-09-24T16:18:22.068Z,10.90
2022-09-24T16:20:49.755Z,7.88
2022-09-24T16:23:17.236Z,6.93
2022-09-24T16:25:58.295Z,10.88
2022-09-24T16:28:25.873Z,7.72
2022-09-24T16:30:53.066Z,4.75
2022-09-24T16:33:21.204Z,9.65
2022-09-24T16:35:48.154Z,7.80
2022-09-24T16:38:17.740Z,7.82
2022-09-24T16:40:49.079Z,8.55
2022-09-24T16:43:15.998Z,7.90
2022-09-24T16:45:42.576Z,6.38
2022-09-24T16:48:11.496Z,7.53
2022-09-24T16:50:39.000Z,6.85
2022-09-24T16:53:05.819Z,5.15
2022-09-24T16:55:32.855Z,10.20
2022-09-24T16:58:00.343Z,8.32
2022-09-24T17:00:26.870Z,8.45
2022-09-24T17:02:53.399Z,8.60
2022-09-24T17:05:19.909Z,8.38
2022-09-24T17:07:46.591Z,6.30
2022-09-24T17:10:13.112Z,10.82
2022-09-24T17:12:42.200Z,7.32
2022-09-24T17:15:09.035Z,8.52
2022-09-24T17:17:44.229Z,8.57
2022-09-24T17:20:12.923Z,8.90
2022-09-24T17:22:39.706Z,8.73
2022-09-24T17:25:07.304Z,6.05
2022-09-24T17:27:37.290Z,12.57
2022-09-24T17:30:06.590Z,7.03
2022-09-24T17:32:33.346Z,6.63
2022-09-24T17:34:59.891Z,6.38
2022-09-24T17:37:27.409Z,7.13
2022-09-24T17:39:54.131Z,8.73
2022-09-24T17:42:20.677Z,8.52
2022-09-24T17:44:48.281Z,9.60
2022-09-24T17:47:14.886Z,10.90
2022-09-24T17:49:42.445Z,8.07
2022-09-24T17:52:09.359Z,15.82
2022-09-24T17:54:36.280Z,12.75
2022-09-24T17:57:02.824Z,11.05
2022-09-24T17:59:29.562Z,13.68
2022-09-24T18:01:56.585Z,10.80
2022-09-24T18:04:25.688Z,17.20
2022-09-24T18:06:52.283Z,13.27
2022-09-24T18:09:19.755Z,11.98
2022-09-24T18:11:48.953Z,10.68
2022-09-24T18:14:17.908Z,9.98
2022-09-24T18:16:45.754Z,12.25
2022-09-24T18:19:14.930Z,12.38
2022-09-24T18:21:41.504Z,10.63
2022-09-24T18:24:10.022Z,10.35
2022-09-24T18:26:39.705Z,9.27
2022-09-24T18:29:12.679Z,8.93
2022-09-24T18:31:40.201Z,8.65
2022-09-24T18:34:08.469Z,10.98
2022-09-24T18:36:39.105Z,8.10
2022-09-24T18:39:11.395Z,10.27
2022-09-24T18:41:38.135Z,9.65
2022-09-24T18:44:05.870Z,9.63
2022-09-24T18:46:33.314Z,12.60
2022-09-24T18:49:00.673Z,8.95
2022-09-24T18:51:37.517Z,10.32
2022-09-24T18:54:11.811Z,10.52
2022-09-24T18:56:38.541Z,11.13
2022-09-24T18:59:09.942Z,14.10
2022-09-24T19:01:37.835Z,15.02
2022-09-24T19:04:05.212Z,11.80
2022-09-24T19:06:35.086Z,16.48
2022-09-24T19:09:01.799Z,15.20
2022-09-24T19:11:30.275Z,15.32
2022-09-24T19:13:57.475Z,15.55
2022-09-24T19:16:24.806Z,17.15
2022-09-24T19:18:52.896Z,27.73
2022-09-24T19:21:20.250Z,22.88
2022-09-24T19:23:56.008Z,19.63
2022-09-24T19:26:25.602Z,23.42
2022-09-24T19:28:52.533Z,27.35
2022-09-24T19:31:25.843Z,23.70
2022-09-24T19:33:53.802Z,21.63
2022-09-24T19:36:21.441Z,23.80
2022-09-24T19:38:48.899Z,25.08
2022-09-24T19:41:29.601Z,25.00
2022-09-24T19:44:01.099Z,23.02
2022-09-24T19:46:33.934Z,14.27
2022-09-24T19:49:01.744Z,15.18
2022-09-24T19:51:31.077Z,13.63
2022-09-24T19:54:06.896Z,15.50
2022-09-24T19:56:34.097Z,13.85
2022-09-24T19:59:01.705Z,14.43
2022-09-24T20:01:31.268Z,12.38
2022-09-24T20:04:00.167Z,14.23
2022-09-24T20:06:28.918Z,16.33
2022-09-24T20:08:56.257Z,16.02
2022-09-24T20:11:24.619Z,19.90
2022-09-24T20:13:52.908Z,15.18
2022-09-24T20:16:22.073Z,16.00
2022-09-24T20:18:50.340Z,17.73
2022-09-24T20:21:18.779Z,16.50
2022-09-24T20:23:46.732Z,17.92
2022-09-24T20:26:33.147Z,16.38
2022-09-24T20:28:59.720Z,20.05
2022-09-24T20:31:26.571Z,15.73
2022-09-24T20:33:53.122Z,15.90
2022-09-24T20:36:24.410Z,14.13
2022-09-24T20:38:52.424Z,14.48
2022-09-24T20:41:23.214Z,14.90
2022-09-24T20:43:50.713Z,13.05
2022-09-24T20:46:21.570Z,14.55
2022-09-24T20:48:48.200Z,14.20
2022-09-24T20:51:18.048Z,16.33
2022-09-24T20:53:46.021Z,14.35
2022-09-24T20:56:12.838Z,14.65
2022-09-24T20:58:39.921Z,12.50
2022-09-24T21:01:08.128Z,12.18
2022-09-24T21:03:45.173Z,14.77
2022-09-24T21:06:14.640Z,14.27
2022-09-24T21:08:43.191Z,14.55
2022-09-24T21:11:15.931Z,15.02
2022-09-24T21:13:44.841Z,16.80
2022-09-24T21:16:12.374Z,13.60
2022-09-24T21:18:43.805Z,15.20
2022-09-24T21:21:18.918Z,13.48
2022-09-24T21:23:48.235Z,15.38
2022-09-24T21:26:20.497Z,13.00
2022-09-24T21:28:49.320Z,12.60
2022-09-24T21:31:18.011Z,12.88
2022-09-24T21:33:46.596Z,15.55
2022-09-24T21:36:15.136Z,11.88
2022-09-24T21:38:41.673Z,12.25
2022-09-24T21:41:08.810Z,11.98
2022-09-24T21:43:35.710Z,13.13
2022-09-24T21:46:05.335Z,14.18
2022-09-24T21:48:32.943Z,11.90
2022-09-24T21:51:10.454Z,13.82
2022-09-24T21:53:37.810Z,12.15
2022-09-24T21:56:04.955Z,13.48
2022-09-24T21:58:32.095Z,14.40
2022-09-24T22:01:04.951Z,14.00
2022-09-24T22:03:31.998Z,16.70
2022-09-24T22:06:03.119Z,14.70
2022-09-24T22:08:31.551Z,14.20
2022-09-24T22:11:04.266Z,18.77
2022-09-24T22:13:32.429Z,17.80
2022-09-24T22:16:00.111Z,15.35
2022-09-24T22:18:27.912Z,16.20
2022-09-24T22:20:55.653Z,17.55
2022-09-24T22:23:22.339Z,19.13
2022-09-24T22:25:58.288Z,19.73
2022-09-24T22:28:26.116Z,22.33
2022-09-24T22:30:54.005Z,17.17
2022-09-24T22:33:39.523Z,22.35
2022-09-24T22:36:06.402Z,30.85
2022-09-24T22:38:32.957Z,19.92
2022-09-24T22:41:00.911Z,22.30
2022-09-24T22:43:29.833Z,23.15
2022-09-24T22:46:01.340Z,26.33
2022-09-24T22:48:28.438Z,18.75
2022-09-24T22:50:55.227Z,22.33
2022-09-24T22:53:22.257Z,21.00
2022-09-24T22:55:52.728Z,22.73
2022-09-24T22:58:19.614Z,23.08
2022-09-24T23:00:46.123Z,21.73
2022-09-24T23:03:12.911Z,18.85
2022-09-24T23:05:39.499Z,22.63
2022-09-24T23:08:06.024Z,22.10
2022-09-24T23:10:32.525Z,20.17
2022-09-24T23:12:59.015Z,20.20
2022-09-24T23:15:25.586Z,20.85
2022-09-24T23:17:53.188Z,21.27
2022-09-24T23:20:19.744Z,20.20
2022-09-24T23:22:46.284Z,20.35
2022-09-24T23:25:12.856Z,22.02
2022-09-24T23:27:39.362Z,23.35
2022-09-24T23:30:06.409Z,24.20
2022-09-24T23:32:32.990Z,26.35
2022-09-24T23:34:59.582Z,22.55
2022-09-24T23:37:26.114Z,22.05
2022-09-24T23:39:52.631Z,22.63
2022-09-24T23:42:20.274Z,26.50
2022-09-24T23:44:48.403Z,26.08
2022-09-24T23:47:15.042Z,27.88
2022-09-24T23:49:41.726Z,28.95
2022-09-24T23:52:08.339Z,30.15
2022-09-24T23:54:37.151Z,27.33
2022-09-24T23:57:06.211Z,29.50
2022-09-24T23:59:33.047Z,23.00
